Ana Sayfa
METAR-TAF:

METAR-TAF

Havaalanları :

Atina Elefterios Venizelos Uluslararası Havalimanı

Atina, Yunanistan

Enlem: 37-56N, Boylam: 023-56E, yükseklik: 94 m

Güncel hava durumu gözlemi

Rapor saat 03:50 UTC de 33 dakika önce yapıldı.
Rüzgar değişken yönden 3 kt
Sıcaklık 2°C
Nem 69%
Basınç 1032 hPa
Görüş mesafesi 10 km veya daha fazla
3000 ft yükseklikte az bulutlu

METAR: LGAV 220350Z VRB03KT 9999 FEW030 02/M03 Q1032 NOSIG

Saat: 06:23 (04:23 UTC)

Tahmin

Rapor saat 23:00 UTC de 5 saat ve 23 dakika önce yapıldı.
Ayın 22'si saat 00 UTC'den ayın 22'si saat 24 UTC'ye kadar geçerli Tahmin
Rüzgar kuzeydan 18 kt
Görüş mesafesi 10 km veya daha fazla
2500 ft yükseklikte az bulutlu
Dönüşüyor
ayın 22'si saat 10 UTC'den ayın 22'si saat 12 UTC'ye kadar
Rüzgar kuzeydan 8 kt
Dönüşüyor
ayın 22'si saat 18 UTC'den ayın 22'si saat 20 UTC'ye kadar
Rüzgar batı/güneybatıdan 10 kt

TAF: LGAV 212300Z 2200/2224 36018KT 9999 FEW025 BECMG 2210/2212 36008KT BECMG 2218/2220 25010KT

4.000'den fazla havaalanı için hava durumu gözlemleri ve tahminleri (METAR ve TAF raporları).

Kullanılabilir istasyonlar harita üzerinde sarı ve kırmızı noktalarla gösterilir.

İstasyonun adını görmek için fareyi noktanın üzerinde gezdirin.

Sonrasında hava gözlem ve tahminlerini görmek için tıklayın.

Haritayı değiştirmek için: yaklaştırmak için siyah artı işaretli yeşil düğmeye ve uzaklaştırmak için de eksi işaretli düğmeye hızla tıklayın; bitişik haritalar için yeşil okları kullanın.


METAR-TAF: